sensor_id;sensor_type;location;lat;lon;timestamp;temperature;humidity
65072;DHT22;51663;52.310;17.016;2023-11-19T18:35:49;6.90;99.90
65072;DHT22;51663;52.310;17.016;2023-11-19T18:38:51;10.00;99.90
65072;DHT22;51663;52.310;17.016;2023-11-19T18:41:54;15.50;99.90
65072;DHT22;51663;52.310;17.016;2023-11-19T18:44:57;19.50;99.90
65072;DHT22;51663;52.310;17.016;2023-11-19T18:47:59;22.10;97.50
65072;DHT22;51663;52.310;17.016;2023-11-19T18:51:01;23.90;89.10
65072;DHT22;51663;52.310;17.016;2023-11-19T18:54:04;25.20;74.50
65072;DHT22;51663;52.310;17.016;2023-11-19T18:57:06;26.20;69.50
65072;DHT22;51663;52.310;17.016;2023-11-19T19:00:10;27.00;60.10
65072;DHT22;51663;52.310;17.016;2023-11-19T19:03:12;27.60;54.90
65072;DHT22;51663;52.310;17.016;2023-11-19T19:06:17;28.20;51.50
65072;DHT22;51663;52.310;17.016;2023-11-19T19:09:20;28.50;49.40
65072;DHT22;51663;52.310;17.016;2023-11-19T19:12:23;28.50;46.70
65072;DHT22;51663;52.310;17.016;2023-11-19T19:15:26;28.80;45.10
65072;DHT22;51663;52.310;17.016;2023-11-19T19:18:29;28.70;43.50
65072;DHT22;51663;52.310;17.016;2023-11-19T19:21:31;29.00;43.30
65072;DHT22;51663;52.310;17.016;2023-11-19T19:24:33;29.30;42.70
65072;DHT22;51663;52.310;17.016;2023-11-19T19:27:36;29.40;42.00
65072;DHT22;51663;52.310;17.016;2023-11-19T19:30:38;29.70;41.60
65072;DHT22;51663;52.310;17.016;2023-11-19T19:33:40;29.90;41.20
65072;DHT22;51663;52.310;17.016;2023-11-19T19:36:42;30.10;40.10
65072;DHT22;51663;52.310;17.016;2023-11-19T19:39:44;30.20;39.80
65072;DHT22;51663;52.310;17.016;2023-11-19T19:42:46;30.30;39.60
65072;DHT22;51663;52.310;17.016;2023-11-19T19:45:49;30.30;39.50
65072;DHT22;51663;52.310;17.016;2023-11-19T19:48:51;30.40;38.70
65072;DHT22;51663;52.310;17.016;2023-11-19T19:51:55;30.40;38.90
65072;DHT22;51663;52.310;17.016;2023-11-19T19:54:58;30.40;38.60
65072;DHT22;51663;52.310;17.016;2023-11-19T19:58:01;30.50;38.80
65072;DHT22;51663;52.310;17.016;2023-11-19T20:01:03;30.50;38.40
65072;DHT22;51663;52.310;17.016;2023-11-19T20:04:06;30.60;38.10
65072;DHT22;51663;52.310;17.016;2023-11-19T20:07:08;30.70;37.80
65072;DHT22;51663;52.310;17.016;2023-11-19T20:10:11;30.70;37.80
65072;DHT22;51663;52.310;17.016;2023-11-19T20:13:14;30.70;37.60
65072;DHT22;51663;52.310;17.016;2023-11-19T20:16:18;30.80;37.60
65072;DHT22;51663;52.310;17.016;2023-11-19T20:19:20;30.90;36.90
65072;DHT22;51663;52.310;17.016;2023-11-19T20:22:22;30.90;37.50
65072;DHT22;51663;52.310;17.016;2023-11-19T20:25:24;31.00;37.10
65072;DHT22;51663;52.310;17.016;2023-11-19T20:28:27;31.00;37.10
65072;DHT22;51663;52.310;17.016;2023-11-19T20:31:29;30.90;36.80
65072;DHT22;51663;52.310;17.016;2023-11-19T20:34:31;30.90;37.10
65072;DHT22;51663;52.310;17.016;2023-11-19T20:37:33;30.80;36.80
65072;DHT22;51663;52.310;17.016;2023-11-19T20:40:39;30.90;37.00
65072;DHT22;51663;52.310;17.016;2023-11-19T20:43:41;30.80;37.20
65072;DHT22;51663;52.310;17.016;2023-11-19T20:46:44;30.80;37.00
65072;DHT22;51663;52.310;17.016;2023-11-19T20:49:47;30.80;37.00
65072;DHT22;51663;52.310;17.016;2023-11-19T20:52:49;30.90;36.70
65072;DHT22;51663;52.310;17.016;2023-11-19T20:55:53;30.80;37.00
65072;DHT22;51663;52.310;17.016;2023-11-19T20:58:55;30.90;36.80
65072;DHT22;51663;52.310;17.016;2023-11-19T21:01:57;30.90;36.70
65072;DHT22;51663;52.310;17.016;2023-11-19T21:05:00;30.80;36.90
65072;DHT22;51663;52.310;17.016;2023-11-19T21:08:02;30.80;36.90
65072;DHT22;51663;52.310;17.016;2023-11-19T21:11:08;30.80;36.80
65072;DHT22;51663;52.310;17.016;2023-11-19T21:14:10;30.70;36.70
65072;DHT22;51663;52.310;17.016;2023-11-19T21:17:13;30.60;36.90
65072;DHT22;51663;52.310;17.016;2023-11-19T21:20:21;30.80;36.80
65072;DHT22;51663;52.310;17.016;2023-11-19T21:23:23;30.80;36.50
65072;DHT22;51663;52.310;17.016;2023-11-19T21:26:26;30.90;36.10
65072;DHT22;51663;52.310;17.016;2023-11-19T21:29:29;30.90;36.20
65072;DHT22;51663;52.310;17.016;2023-11-19T21:32:31;30.90;36.00
65072;DHT22;51663;52.310;17.016;2023-11-19T21:35:35;30.80;35.90
65072;DHT22;51663;52.310;17.016;2023-11-19T21:38:39;30.70;36.10
65072;DHT22;51663;52.310;17.016;2023-11-19T21:41:41;30.70;36.20
65072;DHT22;51663;52.310;17.016;2023-11-19T21:44:44;30.90;36.00
65072;DHT22;51663;52.310;17.016;2023-11-19T21:47:46;30.90;35.90
65072;DHT22;51663;52.310;17.016;2023-11-19T21:50:49;30.60;36.20
65072;DHT22;51663;52.310;17.016;2023-11-19T21:53:51;30.50;36.50
65072;DHT22;51663;52.310;17.016;2023-11-19T21:56:54;30.40;36.70
65072;DHT22;51663;52.310;17.016;2023-11-19T21:59:56;30.30;36.80
65072;DHT22;51663;52.310;17.016;2023-11-19T22:02:58;30.50;36.60
65072;DHT22;51663;52.310;17.016;2023-11-19T22:06:01;30.30;36.80
65072;DHT22;51663;52.310;17.016;2023-11-19T22:09:04;30.20;36.80
65072;DHT22;51663;52.310;17.016;2023-11-19T22:12:07;30.30;36.70
65072;DHT22;51663;52.310;17.016;2023-11-19T22:15:12;30.10;37.10
65072;DHT22;51663;52.310;17.016;2023-11-19T22:18:14;30.30;36.80
65072;DHT22;51663;52.310;17.016;2023-11-19T22:21:17;30.50;36.60
65072;DHT22;51663;52.310;17.016;2023-11-19T22:24:19;30.30;36.70
65072;DHT22;51663;52.310;17.016;2023-11-19T22:27:21;30.50;36.30
65072;DHT22;51663;52.310;17.016;2023-11-19T22:30:24;30.80;36.10
65072;DHT22;51663;52.310;17.016;2023-11-19T22:33:26;30.90;35.90
65072;DHT22;51663;52.310;17.016;2023-11-19T22:36:30;31.00;35.70
65072;DHT22;51663;52.310;17.016;2023-11-19T22:39:32;31.10;35.40
65072;DHT22;51663;52.310;17.016;2023-11-19T22:42:35;31.00;35.50
65072;DHT22;51663;52.310;17.016;2023-11-19T22:45:38;31.00;35.50
65072;DHT22;51663;52.310;17.016;2023-11-19T22:48:41;31.10;35.60
65072;DHT22;51663;52.310;17.016;2023-11-19T22:51:44;31.10;35.50
65072;DHT22;51663;52.310;17.016;2023-11-19T22:54:46;31.10;35.40
65072;DHT22;51663;52.310;17.016;2023-11-19T22:57:48;31.10;35.30
65072;DHT22;51663;52.310;17.016;2023-11-19T23:00:53;31.10;35.30
65072;DHT22;51663;52.310;17.016;2023-11-19T23:03:55;31.20;35.40
65072;DHT22;51663;52.310;17.016;2023-11-19T23:06:58;31.20;35.30
65072;DHT22;51663;52.310;17.016;2023-11-19T23:10:00;31.10;35.50
65072;DHT22;51663;52.310;17.016;2023-11-19T23:13:05;31.10;35.40
65072;DHT22;51663;52.310;17.016;2023-11-19T23:16:07;31.10;35.20
65072;DHT22;51663;52.310;17.016;2023-11-19T23:19:12;31.10;35.20
65072;DHT22;51663;52.310;17.016;2023-11-19T23:22:14;31.10;35.00
65072;DHT22;51663;52.310;17.016;2023-11-19T23:25:33;31.10;35.20
65072;DHT22;51663;52.310;17.016;2023-11-19T23:28:35;31.10;35.10
65072;DHT22;51663;52.310;17.016;2023-11-19T23:31:38;31.10;35.30
65072;DHT22;51663;52.310;17.016;2023-11-19T23:34:40;31.20;35.10
65072;DHT22;51663;52.310;17.016;2023-11-19T23:37:46;31.20;35.10
65072;DHT22;51663;52.310;17.016;2023-11-19T23:40:48;31.30;34.80
65072;DHT22;51663;52.310;17.016;2023-11-19T23:43:51;31.30;35.00
65072;DHT22;51663;52.310;17.016;2023-11-19T23:46:53;31.30;34.80
65072;DHT22;51663;52.310;17.016;2023-11-19T23:49:56;31.30;34.80
65072;DHT22;51663;52.310;17.016;2023-11-19T23:52:58;31.30;34.90
65072;DHT22;51663;52.310;17.016;2023-11-19T23:56:00;31.30;34.90
65072;DHT22;51663;52.310;17.016;2023-11-19T23:59:02;31.40;34.80
